sensor_id;sensor_type;location;lat;lon;timestamp;P1;durP1;ratioP1;P2;durP2;ratioP2
7729;SDS011;3908;52.310;7.230;2023-07-29T00:01:50;11.73;;;7.97;;
7729;SDS011;3908;52.310;7.230;2023-07-29T00:04:39;8.73;;;7.07;;
7729;SDS011;3908;52.310;7.230;2023-07-29T00:07:26;8.43;;;7.53;;
7729;SDS011;3908;52.310;7.230;2023-07-29T00:10:15;7.90;;;7.13;;
7729;SDS011;3908;52.310;7.230;2023-07-29T00:13:01;8.67;;;7.63;;
7729;SDS011;3908;52.310;7.230;2023-07-29T00:15:48;8.30;;;7.47;;
7729;SDS011;3908;52.310;7.230;2023-07-29T00:18:35;6.83;;;6.13;;
7729;SDS011;3908;52.310;7.230;2023-07-29T00:21:22;6.57;;;5.97;;
7729;SDS011;3908;52.310;7.230;2023-07-29T00:24:09;7.07;;;6.40;;
7729;SDS011;3908;52.310;7.230;2023-07-29T00:26:57;8.40;;;7.60;;
7729;SDS011;3908;52.310;7.230;2023-07-29T00:29:43;9.93;;;8.03;;
7729;SDS011;3908;52.310;7.230;2023-07-29T00:32:30;10.40;;;9.57;;
7729;SDS011;3908;52.310;7.230;2023-07-29T00:35:17;12.65;;;11.43;;
7729;SDS011;3908;52.310;7.230;2023-07-29T00:38:04;15.13;;;14.13;;
7729;SDS011;3908;52.310;7.230;2023-07-29T00:40:50;13.63;;;10.68;;
7729;SDS011;3908;52.310;7.230;2023-07-29T00:43:39;12.03;;;11.03;;
7729;SDS011;3908;52.310;7.230;2023-07-29T00:46:25;15.17;;;13.90;;
7729;SDS011;3908;52.310;7.230;2023-07-29T00:49:14;14.93;;;13.83;;
7729;SDS011;3908;52.310;7.230;2023-07-29T00:52:01;14.67;;;13.53;;
7729;SDS011;3908;52.310;7.230;2023-07-29T00:54:47;15.63;;;14.07;;
7729;SDS011;3908;52.310;7.230;2023-07-29T00:57:34;12.60;;;11.67;;
7729;SDS011;3908;52.310;7.230;2023-07-29T01:00:23;12.50;;;11.60;;
7729;SDS011;3908;52.310;7.230;2023-07-29T01:03:10;14.70;;;13.60;;
7729;SDS011;3908;52.310;7.230;2023-07-29T01:05:59;14.80;;;13.63;;
7729;SDS011;3908;52.310;7.230;2023-07-29T01:08:51;13.20;;;12.30;;
7729;SDS011;3908;52.310;7.230;2023-07-29T01:11:43;11.97;;;10.73;;
7729;SDS011;3908;52.310;7.230;2023-07-29T01:14:34;10.80;;;10.00;;
7729;SDS011;3908;52.310;7.230;2023-07-29T01:17:25;12.10;;;11.30;;
7729;SDS011;3908;52.310;7.230;2023-07-29T01:20:16;9.63;;;9.03;;
7729;SDS011;3908;52.310;7.230;2023-07-29T01:23:05;11.57;;;10.53;;
7729;SDS011;3908;52.310;7.230;2023-07-29T01:25:54;10.40;;;9.60;;
7729;SDS011;3908;52.310;7.230;2023-07-29T01:28:40;12.27;;;11.27;;
7729;SDS011;3908;52.310;7.230;2023-07-29T01:31:30;14.57;;;10.93;;
7729;SDS011;3908;52.310;7.230;2023-07-29T01:34:19;11.30;;;10.20;;
7729;SDS011;3908;52.310;7.230;2023-07-29T01:37:11;11.80;;;9.30;;
7729;SDS011;3908;52.310;7.230;2023-07-29T01:40:01;9.53;;;8.83;;
7729;SDS011;3908;52.310;7.230;2023-07-29T01:42:49;9.60;;;8.43;;
7729;SDS011;3908;52.310;7.230;2023-07-29T01:45:37;9.37;;;8.53;;
7729;SDS011;3908;52.310;7.230;2023-07-29T01:48:24;12.23;;;11.33;;
7729;SDS011;3908;52.310;7.230;2023-07-29T01:51:11;10.07;;;9.17;;
7729;SDS011;3908;52.310;7.230;2023-07-29T01:53:58;11.03;;;10.03;;
7729;SDS011;3908;52.310;7.230;2023-07-29T01:56:45;10.27;;;9.20;;
7729;SDS011;3908;52.310;7.230;2023-07-29T01:59:33;10.37;;;9.47;;
7729;SDS011;3908;52.310;7.230;2023-07-29T02:02:20;13.73;;;12.67;;
7729;SDS011;3908;52.310;7.230;2023-07-29T02:05:07;11.97;;;11.07;;
7729;SDS011;3908;52.310;7.230;2023-07-29T02:07:53;11.83;;;10.90;;
7729;SDS011;3908;52.310;7.230;2023-07-29T02:10:40;11.13;;;10.33;;
7729;SDS011;3908;52.310;7.230;2023-07-29T02:13:30;10.63;;;9.87;;
7729;SDS011;3908;52.310;7.230;2023-07-29T02:16:18;15.27;;;13.87;;
7729;SDS011;3908;52.310;7.230;2023-07-29T02:19:05;16.17;;;15.17;;
7729;SDS011;3908;52.310;7.230;2023-07-29T02:21:52;16.60;;;15.57;;
7729;SDS011;3908;52.310;7.230;2023-07-29T02:24:38;12.87;;;11.93;;
7729;SDS011;3908;52.310;7.230;2023-07-29T02:27:25;12.80;;;11.90;;
7729;SDS011;3908;52.310;7.230;2023-07-29T02:30:13;11.27;;;10.47;;
7729;SDS011;3908;52.310;7.230;2023-07-29T02:33:01;11.83;;;10.90;;
7729;SDS011;3908;52.310;7.230;2023-07-29T02:35:48;13.43;;;12.53;;
7729;SDS011;3908;52.310;7.230;2023-07-29T02:38:35;14.90;;;14.03;;
7729;SDS011;3908;52.310;7.230;2023-07-29T02:41:21;15.23;;;14.20;;
7729;SDS011;3908;52.310;7.230;2023-07-29T02:44:09;10.73;;;9.80;;
7729;SDS011;3908;52.310;7.230;2023-07-29T02:46:56;7.37;;;6.67;;
7729;SDS011;3908;52.310;7.230;2023-07-29T02:49:44;7.43;;;6.72;;
7729;SDS011;3908;52.310;7.230;2023-07-29T02:52:31;6.93;;;6.33;;
7729;SDS011;3908;52.310;7.230;2023-07-29T02:55:18;8.37;;;7.67;;
7729;SDS011;3908;52.310;7.230;2023-07-29T02:58:05;11.70;;;10.80;;
7729;SDS011;3908;52.310;7.230;2023-07-29T03:00:52;13.17;;;11.97;;
7729;SDS011;3908;52.310;7.230;2023-07-29T03:03:39;10.00;;;8.47;;
7729;SDS011;3908;52.310;7.230;2023-07-29T03:06:27;10.70;;;9.70;;
7729;SDS011;3908;52.310;7.230;2023-07-29T03:09:14;15.30;;;14.13;;
7729;SDS011;3908;52.310;7.230;2023-07-29T03:12:00;13.77;;;12.60;;
7729;SDS011;3908;52.310;7.230;2023-07-29T03:14:47;11.90;;;10.93;;
7729;SDS011;3908;52.310;7.230;2023-07-29T03:17:34;15.67;;;14.53;;
7729;SDS011;3908;52.310;7.230;2023-07-29T03:20:21;17.07;;;15.73;;
7729;SDS011;3908;52.310;7.230;2023-07-29T03:23:09;17.00;;;15.87;;
7729;SDS011;3908;52.310;7.230;2023-07-29T03:25:56;16.13;;;14.90;;
7729;SDS011;3908;52.310;7.230;2023-07-29T03:28:44;17.57;;;16.03;;
7729;SDS011;3908;52.310;7.230;2023-07-29T03:31:30;18.95;;;17.65;;
7729;SDS011;3908;52.310;7.230;2023-07-29T03:34:17;12.60;;;11.70;;
7729;SDS011;3908;52.310;7.230;2023-07-29T03:37:04;14.90;;;13.83;;
7729;SDS011;3908;52.310;7.230;2023-07-29T03:39:52;15.57;;;14.40;;
7729;SDS011;3908;52.310;7.230;2023-07-29T03:42:39;19.63;;;18.10;;
7729;SDS011;3908;52.310;7.230;2023-07-29T03:45:26;21.23;;;19.80;;
7729;SDS011;3908;52.310;7.230;2023-07-29T03:48:12;19.63;;;18.37;;
7729;SDS011;3908;52.310;7.230;2023-07-29T03:50:59;23.67;;;22.00;;
7729;SDS011;3908;52.310;7.230;2023-07-29T03:53:46;18.50;;;17.17;;
7729;SDS011;3908;52.310;7.230;2023-07-29T03:56:34;17.50;;;16.07;;
7729;SDS011;3908;52.310;7.230;2023-07-29T03:59:21;14.75;;;13.75;;
7729;SDS011;3908;52.310;7.230;2023-07-29T04:02:08;16.60;;;14.87;;
7729;SDS011;3908;52.310;7.230;2023-07-29T04:04:56;14.17;;;12.93;;
7729;SDS011;3908;52.310;7.230;2023-07-29T04:07:42;13.83;;;12.73;;
7729;SDS011;3908;52.310;7.230;2023-07-29T04:10:29;15.70;;;14.57;;
7729;SDS011;3908;52.310;7.230;2023-07-29T04:13:18;14.47;;;13.27;;
7729;SDS011;3908;52.310;7.230;2023-07-29T04:16:05;11.70;;;10.53;;
7729;SDS011;3908;52.310;7.230;2023-07-29T04:18:52;11.20;;;10.07;;
7729;SDS011;3908;52.310;7.230;2023-07-29T04:21:39;11.07;;;10.27;;
7729;SDS011;3908;52.310;7.230;2023-07-29T04:24:25;18.30;;;16.43;;
7729;SDS011;3908;52.310;7.230;2023-07-29T04:27:12;31.97;;;15.43;;
7729;SDS011;3908;52.310;7.230;2023-07-29T04:30:00;22.70;;;18.80;;
7729;SDS011;3908;52.310;7.230;2023-07-29T04:32:47;19.60;;;18.00;;
7729;SDS011;3908;52.310;7.230;2023-07-29T04:35:34;15.07;;;14.07;;
7729;SDS011;3908;52.310;7.230;2023-07-29T04:38:21;14.70;;;13.60;;
7729;SDS011;3908;52.310;7.230;2023-07-29T04:41:07;19.33;;;18.13;;
7729;SDS011;3908;52.310;7.230;2023-07-29T04:43:54;21.67;;;20.37;;
7729;SDS011;3908;52.310;7.230;2023-07-29T04:46:42;20.70;;;19.20;;
7729;SDS011;3908;52.310;7.230;2023-07-29T04:49:29;16.73;;;15.63;;
7729;SDS011;3908;52.310;7.230;2023-07-29T04:52:16;17.03;;;15.83;;
7729;SDS011;3908;52.310;7.230;2023-07-29T04:55:04;20.10;;;18.47;;
7729;SDS011;3908;52.310;7.230;2023-07-29T04:57:51;24.27;;;22.33;;
7729;SDS011;3908;52.310;7.230;2023-07-29T05:00:38;30.40;;;28.57;;
7729;SDS011;3908;52.310;7.230;2023-07-29T05:03:26;26.70;;;25.07;;
7729;SDS011;3908;52.310;7.230;2023-07-29T05:06:13;23.10;;;21.53;;
7729;SDS011;3908;52.310;7.230;2023-07-29T05:09:01;18.90;;;17.60;;
7729;SDS011;3908;52.310;7.230;2023-07-29T05:11:58;17.47;;;16.17;;
7729;SDS011;3908;52.310;7.230;2023-07-29T05:14:45;20.13;;;18.47;;
7729;SDS011;3908;52.310;7.230;2023-07-29T05:17:32;19.13;;;17.73;;
7729;SDS011;3908;52.310;7.230;2023-07-29T05:20:20;18.67;;;17.27;;
7729;SDS011;3908;52.310;7.230;2023-07-29T05:23:06;18.03;;;16.80;;
7729;SDS011;3908;52.310;7.230;2023-07-29T05:25:53;18.10;;;16.70;;
7729;SDS011;3908;52.310;7.230;2023-07-29T05:28:40;20.10;;;18.40;;
7729;SDS011;3908;52.310;7.230;2023-07-29T05:31:27;20.10;;;18.60;;
7729;SDS011;3908;52.310;7.230;2023-07-29T05:34:14;21.50;;;20.02;;
7729;SDS011;3908;52.310;7.230;2023-07-29T05:37:02;19.60;;;18.00;;
7729;SDS011;3908;52.310;7.230;2023-07-29T05:39:49;17.55;;;16.15;;
7729;SDS011;3908;52.310;7.230;2023-07-29T05:42:36;20.10;;;18.53;;
7729;SDS011;3908;52.310;7.230;2023-07-29T05:45:23;18.02;;;16.48;;
7729;SDS011;3908;52.310;7.230;2023-07-29T05:48:09;16.48;;;15.15;;
7729;SDS011;3908;52.310;7.230;2023-07-29T05:50:56;20.42;;;18.80;;
7729;SDS011;3908;52.310;7.230;2023-07-29T05:53:44;18.52;;;17.17;;
7729;SDS011;3908;52.310;7.230;2023-07-29T05:56:31;15.37;;;14.17;;
7729;SDS011;3908;52.310;7.230;2023-07-29T05:59:18;21.55;;;20.05;;
7729;SDS011;3908;52.310;7.230;2023-07-29T06:02:05;23.75;;;22.08;;
7729;SDS011;3908;52.310;7.230;2023-07-29T06:04:52;23.33;;;21.60;;
7729;SDS011;3908;52.310;7.230;2023-07-29T06:07:39;26.20;;;24.23;;
7729;SDS011;3908;52.310;7.230;2023-07-29T06:10:30;22.92;;;21.33;;
7729;SDS011;3908;52.310;7.230;2023-07-29T06:13:17;14.43;;;13.20;;
7729;SDS011;3908;52.310;7.230;2023-07-29T06:16:04;14.60;;;13.20;;
7729;SDS011;3908;52.310;7.230;2023-07-29T06:18:51;16.15;;;14.77;;
7729;SDS011;3908;52.310;7.230;2023-07-29T06:21:38;18.43;;;16.77;;
7729;SDS011;3908;52.310;7.230;2023-07-29T06:24:25;17.57;;;16.03;;
7729;SDS011;3908;52.310;7.230;2023-07-29T06:27:13;19.58;;;17.73;;
7729;SDS011;3908;52.310;7.230;2023-07-29T06:29:59;20.85;;;19.20;;
7729;SDS011;3908;52.310;7.230;2023-07-29T06:32:46;21.48;;;19.83;;
7729;SDS011;3908;52.310;7.230;2023-07-29T06:35:33;19.95;;;18.23;;
7729;SDS011;3908;52.310;7.230;2023-07-29T06:38:20;20.50;;;18.60;;
7729;SDS011;3908;52.310;7.230;2023-07-29T06:41:07;23.00;;;20.83;;
7729;SDS011;3908;52.310;7.230;2023-07-29T06:43:56;14.07;;;12.80;;
7729;SDS011;3908;52.310;7.230;2023-07-29T06:46:42;17.85;;;16.55;;
7729;SDS011;3908;52.310;7.230;2023-07-29T06:49:29;20.83;;;19.42;;
7729;SDS011;3908;52.310;7.230;2023-07-29T06:52:16;58.83;;;55.85;;
7729;SDS011;3908;52.310;7.230;2023-07-29T06:55:03;68.53;;;64.80;;
7729;SDS011;3908;52.310;7.230;2023-07-29T06:57:50;58.33;;;55.22;;
7729;SDS011;3908;52.310;7.230;2023-07-29T07:00:38;31.35;;;29.55;;
7729;SDS011;3908;52.310;7.230;2023-07-29T07:03:25;29.73;;;28.00;;
7729;SDS011;3908;52.310;7.230;2023-07-29T07:06:12;23.20;;;21.65;;
7729;SDS011;3908;52.310;7.230;2023-07-29T07:08:59;11.80;;;10.82;;
7729;SDS011;3908;52.310;7.230;2023-07-29T07:11:45;49.75;;;46.85;;
7729;SDS011;3908;52.310;7.230;2023-07-29T07:14:33;43.50;;;41.08;;
7729;SDS011;3908;52.310;7.230;2023-07-29T07:17:21;63.85;;;60.75;;
7729;SDS011;3908;52.310;7.230;2023-07-29T07:20:08;69.70;;;65.85;;
7729;SDS011;3908;52.310;7.230;2023-07-29T07:22:55;80.05;;;76.28;;
7729;SDS011;3908;52.310;7.230;2023-07-29T07:25:42;67.97;;;64.35;;
7729;SDS011;3908;52.310;7.230;2023-07-29T07:28:28;66.20;;;62.95;;
7729;SDS011;3908;52.310;7.230;2023-07-29T07:31:15;126.18;;;120.10;;
7729;SDS011;3908;52.310;7.230;2023-07-29T07:34:04;158.70;;;151.15;;
7729;SDS011;3908;52.310;7.230;2023-07-29T07:36:50;123.70;;;117.78;;
7729;SDS011;3908;52.310;7.230;2023-07-29T07:39:37;87.47;;;82.93;;
7729;SDS011;3908;52.310;7.230;2023-07-29T07:42:24;100.82;;;95.95;;
7729;SDS011;3908;52.310;7.230;2023-07-29T07:45:11;126.32;;;119.82;;
7729;SDS011;3908;52.310;7.230;2023-07-29T07:47:57;140.80;;;134.25;;
7729;SDS011;3908;52.310;7.230;2023-07-29T07:50:46;169.70;;;161.25;;
7729;SDS011;3908;52.310;7.230;2023-07-29T07:53:32;143.85;;;137.23;;
7729;SDS011;3908;52.310;7.230;2023-07-29T07:56:19;88.53;;;84.57;;
7729;SDS011;3908;52.310;7.230;2023-07-29T07:59:06;52.95;;;50.45;;
7729;SDS011;3908;52.310;7.230;2023-07-29T08:01:53;150.07;;;142.20;;
7729;SDS011;3908;52.310;7.230;2023-07-29T08:04:40;245.05;;;231.77;;
7729;SDS011;3908;52.310;7.230;2023-07-29T08:07:28;202.10;;;191.68;;
7729;SDS011;3908;52.310;7.230;2023-07-29T08:10:15;201.32;;;189.68;;
7729;SDS011;3908;52.310;7.230;2023-07-29T08:13:02;144.25;;;137.15;;
7729;SDS011;3908;52.310;7.230;2023-07-29T08:15:49;156.70;;;148.88;;
7729;SDS011;3908;52.310;7.230;2023-07-29T08:18:36;151.60;;;143.77;;
7729;SDS011;3908;52.310;7.230;2023-07-29T08:21:23;315.20;;;298.25;;
7729;SDS011;3908;52.310;7.230;2023-07-29T08:24:11;317.92;;;300.25;;
7729;SDS011;3908;52.310;7.230;2023-07-29T08:26:57;176.60;;;166.93;;
7729;SDS011;3908;52.310;7.230;2023-07-29T08:29:44;98.47;;;93.72;;
7729;SDS011;3908;52.310;7.230;2023-07-29T08:32:31;87.75;;;83.47;;
7729;SDS011;3908;52.310;7.230;2023-07-29T08:35:18;217.52;;;205.25;;
7729;SDS011;3908;52.310;7.230;2023-07-29T08:38:05;206.80;;;195.65;;
7729;SDS011;3908;52.310;7.230;2023-07-29T08:40:54;260.17;;;245.82;;
7729;SDS011;3908;52.310;7.230;2023-07-29T08:43:44;113.63;;;108.13;;
7729;SDS011;3908;52.310;7.230;2023-07-29T08:46:34;205.65;;;194.75;;
7729;SDS011;3908;52.310;7.230;2023-07-29T08:49:23;45.85;;;43.50;;
7729;SDS011;3908;52.310;7.230;2023-07-29T08:52:10;243.05;;;229.55;;
7729;SDS011;3908;52.310;7.230;2023-07-29T08:54:58;133.95;;;127.35;;
7729;SDS011;3908;52.310;7.230;2023-07-29T08:57:46;102.00;;;96.65;;
7729;SDS011;3908;52.310;7.230;2023-07-29T09:00:33;286.92;;;271.30;;
7729;SDS011;3908;52.310;7.230;2023-07-29T09:03:21;282.90;;;266.83;;
7729;SDS011;3908;52.310;7.230;2023-07-29T09:06:08;307.58;;;291.13;;
7729;SDS011;3908;52.310;7.230;2023-07-29T09:08:54;326.48;;;309.40;;
7729;SDS011;3908;52.310;7.230;2023-07-29T09:11:41;291.30;;;276.05;;
7729;SDS011;3908;52.310;7.230;2023-07-29T09:14:29;288.10;;;273.17;;
7729;SDS011;3908;52.310;7.230;2023-07-29T09:17:16;243.25;;;230.60;;
7729;SDS011;3908;52.310;7.230;2023-07-29T09:20:03;306.52;;;290.05;;
7729;SDS011;3908;52.310;7.230;2023-07-29T09:22:50;259.80;;;246.13;;
7729;SDS011;3908;52.310;7.230;2023-07-29T09:25:37;263.60;;;248.32;;
7729;SDS011;3908;52.310;7.230;2023-07-29T09:28:26;276.75;;;261.55;;
7729;SDS011;3908;52.310;7.230;2023-07-29T09:31:20;285.35;;;269.02;;
7729;SDS011;3908;52.310;7.230;2023-07-29T09:34:07;317.20;;;300.15;;
7729;SDS011;3908;52.310;7.230;2023-07-29T09:36:54;274.85;;;258.05;;
7729;SDS011;3908;52.310;7.230;2023-07-29T09:39:42;237.90;;;224.48;;
7729;SDS011;3908;52.310;7.230;2023-07-29T09:42:30;258.75;;;244.75;;
7729;SDS011;3908;52.310;7.230;2023-07-29T09:45:20;241.80;;;228.98;;
7729;SDS011;3908;52.310;7.230;2023-07-29T09:48:09;260.85;;;245.70;;
7729;SDS011;3908;52.310;7.230;2023-07-29T09:50:56;266.65;;;252.82;;
7729;SDS011;3908;52.310;7.230;2023-07-29T09:53:46;295.17;;;280.60;;
7729;SDS011;3908;52.310;7.230;2023-07-29T09:56:33;276.15;;;262.58;;
7729;SDS011;3908;52.310;7.230;2023-07-29T09:59:25;314.25;;;297.10;;
7729;SDS011;3908;52.310;7.230;2023-07-29T10:02:13;295.48;;;279.10;;
7729;SDS011;3908;52.310;7.230;2023-07-29T10:05:02;226.15;;;212.98;;
7729;SDS011;3908;52.310;7.230;2023-07-29T10:07:49;266.60;;;249.80;;
7729;SDS011;3908;52.310;7.230;2023-07-29T10:10:36;383.63;;;358.65;;
7729;SDS011;3908;52.310;7.230;2023-07-29T10:13:22;187.60;;;176.35;;
7729;SDS011;3908;52.310;7.230;2023-07-29T10:16:10;228.68;;;214.52;;
7729;SDS011;3908;52.310;7.230;2023-07-29T10:18:57;267.27;;;248.75;;
7729;SDS011;3908;52.310;7.230;2023-07-29T10:21:46;323.15;;;300.30;;
7729;SDS011;3908;52.310;7.230;2023-07-29T10:24:35;376.38;;;351.55;;
7729;SDS011;3908;52.310;7.230;2023-07-29T10:27:24;408.88;;;381.25;;
7729;SDS011;3908;52.310;7.230;2023-07-29T10:30:11;327.65;;;306.83;;
7729;SDS011;3908;52.310;7.230;2023-07-29T10:33:01;344.35;;;322.10;;
7729;SDS011;3908;52.310;7.230;2023-07-29T10:35:48;245.38;;;230.43;;
7729;SDS011;3908;52.310;7.230;2023-07-29T10:38:36;210.48;;;198.25;;
7729;SDS011;3908;52.310;7.230;2023-07-29T10:41:23;199.25;;;188.07;;
7729;SDS011;3908;52.310;7.230;2023-07-29T10:44:21;324.88;;;302.75;;
7729;SDS011;3908;52.310;7.230;2023-07-29T10:47:28;427.60;;;401.02;;
7729;SDS011;3908;52.310;7.230;2023-07-29T10:50:19;446.60;;;420.00;;
7729;SDS011;3908;52.310;7.230;2023-07-29T10:53:06;435.83;;;410.58;;
7729;SDS011;3908;52.310;7.230;2023-07-29T10:55:54;383.05;;;361.73;;
7729;SDS011;3908;52.310;7.230;2023-07-29T10:58:41;370.95;;;350.60;;
7729;SDS011;3908;52.310;7.230;2023-07-29T11:01:29;272.20;;;257.60;;
7729;SDS011;3908;52.310;7.230;2023-07-29T11:04:24;265.35;;;251.02;;
7729;SDS011;3908;52.310;7.230;2023-07-29T11:07:21;215.50;;;204.23;;
7729;SDS011;3908;52.310;7.230;2023-07-29T11:10:14;197.70;;;187.60;;
7729;SDS011;3908;52.310;7.230;2023-07-29T11:13:03;191.18;;;179.15;;
7729;SDS011;3908;52.310;7.230;2023-07-29T11:15:51;224.75;;;213.00;;
7729;SDS011;3908;52.310;7.230;2023-07-29T11:18:39;235.38;;;223.15;;
7729;SDS011;3908;52.310;7.230;2023-07-29T11:21:27;188.50;;;178.60;;
7729;SDS011;3908;52.310;7.230;2023-07-29T11:24:16;219.63;;;207.80;;
7729;SDS011;3908;52.310;7.230;2023-07-29T11:27:04;186.23;;;177.68;;
7729;SDS011;3908;52.310;7.230;2023-07-29T11:29:57;134.07;;;127.40;;
7729;SDS011;3908;52.310;7.230;2023-07-29T11:32:45;198.70;;;187.90;;
7729;SDS011;3908;52.310;7.230;2023-07-29T11:35:32;240.13;;;227.40;;
7729;SDS011;3908;52.310;7.230;2023-07-29T11:38:19;288.23;;;272.45;;
7729;SDS011;3908;52.310;7.230;2023-07-29T11:41:06;321.00;;;302.88;;
7729;SDS011;3908;52.310;7.230;2023-07-29T11:43:53;335.67;;;316.05;;
7729;SDS011;3908;52.310;7.230;2023-07-29T11:46:41;344.50;;;324.67;;
7729;SDS011;3908;52.310;7.230;2023-07-29T11:49:28;318.08;;;299.88;;
7729;SDS011;3908;52.310;7.230;2023-07-29T11:52:15;386.42;;;364.08;;
7729;SDS011;3908;52.310;7.230;2023-07-29T11:55:04;340.90;;;321.88;;
7729;SDS011;3908;52.310;7.230;2023-07-29T11:57:51;382.77;;;361.98;;
7729;SDS011;3908;52.310;7.230;2023-07-29T12:00:38;359.83;;;340.77;;
7729;SDS011;3908;52.310;7.230;2023-07-29T12:03:27;296.80;;;281.77;;
7729;SDS011;3908;52.310;7.230;2023-07-29T12:06:14;249.57;;;237.60;;
7729;SDS011;3908;52.310;7.230;2023-07-29T12:09:01;174.52;;;165.68;;
7729;SDS011;3908;52.310;7.230;2023-07-29T12:11:48;288.35;;;270.88;;
7729;SDS011;3908;52.310;7.230;2023-07-29T12:14:35;302.02;;;283.20;;
7729;SDS011;3908;52.310;7.230;2023-07-29T12:17:22;217.80;;;205.27;;
7729;SDS011;3908;52.310;7.230;2023-07-29T12:20:11;228.70;;;215.02;;
7729;SDS011;3908;52.310;7.230;2023-07-29T12:22:58;371.15;;;348.15;;
7729;SDS011;3908;52.310;7.230;2023-07-29T12:25:46;355.52;;;333.38;;
7729;SDS011;3908;52.310;7.230;2023-07-29T12:28:33;331.48;;;310.88;;
7729;SDS011;3908;52.310;7.230;2023-07-29T12:31:20;381.73;;;357.92;;
7729;SDS011;3908;52.310;7.230;2023-07-29T12:34:07;316.55;;;296.65;;
7729;SDS011;3908;52.310;7.230;2023-07-29T12:36:55;274.20;;;257.75;;
7729;SDS011;3908;52.310;7.230;2023-07-29T12:39:42;257.95;;;242.18;;
7729;SDS011;3908;52.310;7.230;2023-07-29T12:42:29;290.98;;;274.75;;
7729;SDS011;3908;52.310;7.230;2023-07-29T12:45:16;276.52;;;262.70;;
7729;SDS011;3908;52.310;7.230;2023-07-29T12:48:03;253.80;;;241.20;;
7729;SDS011;3908;52.310;7.230;2023-07-29T12:50:49;263.98;;;251.07;;
7729;SDS011;3908;52.310;7.230;2023-07-29T12:53:38;233.55;;;222.05;;
7729;SDS011;3908;52.310;7.230;2023-07-29T12:56:25;275.35;;;261.92;;
7729;SDS011;3908;52.310;7.230;2023-07-29T12:59:12;287.63;;;273.65;;
7729;SDS011;3908;52.310;7.230;2023-07-29T13:01:59;273.00;;;259.75;;
7729;SDS011;3908;52.310;7.230;2023-07-29T13:04:46;255.07;;;242.60;;
7729;SDS011;3908;52.310;7.230;2023-07-29T13:07:32;254.88;;;241.55;;
7729;SDS011;3908;52.310;7.230;2023-07-29T13:10:21;250.55;;;236.75;;
7729;SDS011;3908;52.310;7.230;2023-07-29T13:13:07;242.80;;;229.88;;
7729;SDS011;3908;52.310;7.230;2023-07-29T13:15:54;240.73;;;227.55;;
7729;SDS011;3908;52.310;7.230;2023-07-29T13:18:43;235.20;;;222.38;;
7729;SDS011;3908;52.310;7.230;2023-07-29T13:21:30;298.48;;;279.95;;
7729;SDS011;3908;52.310;7.230;2023-07-29T13:24:16;371.10;;;346.55;;
7729;SDS011;3908;52.310;7.230;2023-07-29T13:27:05;401.13;;;374.42;;
7729;SDS011;3908;52.310;7.230;2023-07-29T13:29:52;324.52;;;303.52;;
7729;SDS011;3908;52.310;7.230;2023-07-29T13:32:38;331.33;;;309.60;;
7729;SDS011;3908;52.310;7.230;2023-07-29T13:35:25;295.58;;;276.85;;
7729;SDS011;3908;52.310;7.230;2023-07-29T13:38:13;265.05;;;247.73;;
7729;SDS011;3908;52.310;7.230;2023-07-29T13:41:00;272.42;;;254.93;;
7729;SDS011;3908;52.310;7.230;2023-07-29T13:43:49;301.00;;;281.55;;
7729;SDS011;3908;52.310;7.230;2023-07-29T13:46:35;370.92;;;348.00;;
7729;SDS011;3908;52.310;7.230;2023-07-29T13:49:22;236.68;;;222.15;;
7729;SDS011;3908;52.310;7.230;2023-07-29T13:52:09;284.08;;;267.38;;
7729;SDS011;3908;52.310;7.230;2023-07-29T13:54:56;390.55;;;366.27;;
7729;SDS011;3908;52.310;7.230;2023-07-29T13:57:42;378.05;;;354.55;;
7729;SDS011;3908;52.310;7.230;2023-07-29T14:00:31;417.52;;;390.30;;
7729;SDS011;3908;52.310;7.230;2023-07-29T14:03:17;385.00;;;359.90;;
7729;SDS011;3908;52.310;7.230;2023-07-29T14:06:04;450.77;;;419.77;;
7729;SDS011;3908;52.310;7.230;2023-07-29T14:08:51;470.55;;;438.00;;
7729;SDS011;3908;52.310;7.230;2023-07-29T14:11:38;416.20;;;389.63;;
7729;SDS011;3908;52.310;7.230;2023-07-29T14:14:24;466.45;;;437.88;;
7729;SDS011;3908;52.310;7.230;2023-07-29T14:17:13;270.60;;;255.45;;
7729;SDS011;3908;52.310;7.230;2023-07-29T14:19:59;293.65;;;276.52;;
7729;SDS011;3908;52.310;7.230;2023-07-29T14:22:46;343.02;;;323.02;;
7729;SDS011;3908;52.310;7.230;2023-07-29T14:25:33;289.08;;;271.80;;
7729;SDS011;3908;52.310;7.230;2023-07-29T14:28:20;359.13;;;338.15;;
7729;SDS011;3908;52.310;7.230;2023-07-29T14:31:07;353.45;;;333.20;;
7729;SDS011;3908;52.310;7.230;2023-07-29T14:33:55;379.75;;;357.73;;
7729;SDS011;3908;52.310;7.230;2023-07-29T14:36:42;366.95;;;345.92;;
7729;SDS011;3908;52.310;7.230;2023-07-29T14:39:28;370.10;;;348.38;;
7729;SDS011;3908;52.310;7.230;2023-07-29T14:42:15;359.50;;;339.35;;
7729;SDS011;3908;52.310;7.230;2023-07-29T14:45:02;343.90;;;324.75;;
7729;SDS011;3908;52.310;7.230;2023-07-29T14:47:49;268.85;;;253.93;;
7729;SDS011;3908;52.310;7.230;2023-07-29T14:50:37;254.13;;;240.50;;
7729;SDS011;3908;52.310;7.230;2023-07-29T14:53:24;331.50;;;312.27;;
7729;SDS011;3908;52.310;7.230;2023-07-29T14:56:10;328.08;;;309.08;;
7729;SDS011;3908;52.310;7.230;2023-07-29T14:58:59;319.48;;;300.42;;
7729;SDS011;3908;52.310;7.230;2023-07-29T15:01:45;355.90;;;334.63;;
7729;SDS011;3908;52.310;7.230;2023-07-29T15:04:32;304.08;;;286.40;;
7729;SDS011;3908;52.310;7.230;2023-07-29T15:07:20;289.92;;;272.80;;
7729;SDS011;3908;52.310;7.230;2023-07-29T15:10:07;318.63;;;300.30;;
7729;SDS011;3908;52.310;7.230;2023-07-29T15:12:54;342.45;;;322.58;;
7729;SDS011;3908;52.310;7.230;2023-07-29T15:15:41;334.27;;;314.42;;
7729;SDS011;3908;52.310;7.230;2023-07-29T15:18:28;320.73;;;298.50;;
7729;SDS011;3908;52.310;7.230;2023-07-29T15:21:15;364.92;;;341.02;;
7729;SDS011;3908;52.310;7.230;2023-07-29T15:24:04;369.23;;;344.73;;
7729;SDS011;3908;52.310;7.230;2023-07-29T15:26:51;375.15;;;349.55;;
7729;SDS011;3908;52.310;7.230;2023-07-29T15:29:38;389.98;;;366.75;;
7729;SDS011;3908;52.310;7.230;2023-07-29T15:32:25;404.80;;;379.58;;
7729;SDS011;3908;52.310;7.230;2023-07-29T15:35:13;317.08;;;298.25;;
7729;SDS011;3908;52.310;7.230;2023-07-29T15:38:00;301.63;;;284.05;;
7729;SDS011;3908;52.310;7.230;2023-07-29T15:40:49;261.27;;;246.48;;
7729;SDS011;3908;52.310;7.230;2023-07-29T15:43:36;332.75;;;312.88;;
7729;SDS011;3908;52.310;7.230;2023-07-29T15:46:23;307.83;;;289.98;;
7729;SDS011;3908;52.310;7.230;2023-07-29T15:49:10;275.65;;;260.20;;
7729;SDS011;3908;52.310;7.230;2023-07-29T15:51:57;248.93;;;235.30;;
7729;SDS011;3908;52.310;7.230;2023-07-29T15:54:44;273.85;;;258.98;;
7729;SDS011;3908;52.310;7.230;2023-07-29T15:57:32;280.15;;;264.65;;
7729;SDS011;3908;52.310;7.230;2023-07-29T16:00:19;302.35;;;286.02;;
7729;SDS011;3908;52.310;7.230;2023-07-29T16:03:07;295.38;;;279.70;;
7729;SDS011;3908;52.310;7.230;2023-07-29T16:05:54;304.38;;;288.00;;
7729;SDS011;3908;52.310;7.230;2023-07-29T16:08:41;283.48;;;268.77;;
7729;SDS011;3908;52.310;7.230;2023-07-29T16:11:28;294.20;;;278.70;;
7729;SDS011;3908;52.310;7.230;2023-07-29T16:14:16;257.77;;;244.80;;
7729;SDS011;3908;52.310;7.230;2023-07-29T16:17:05;253.18;;;240.52;;
7729;SDS011;3908;52.310;7.230;2023-07-29T16:19:52;281.33;;;267.35;;
7729;SDS011;3908;52.310;7.230;2023-07-29T16:22:39;231.13;;;219.63;;
7729;SDS011;3908;52.310;7.230;2023-07-29T16:25:26;228.52;;;217.23;;
7729;SDS011;3908;52.310;7.230;2023-07-29T16:28:13;210.40;;;199.25;;
7729;SDS011;3908;52.310;7.230;2023-07-29T16:31:02;262.73;;;248.07;;
7729;SDS011;3908;52.310;7.230;2023-07-29T16:33:49;279.90;;;264.30;;
7729;SDS011;3908;52.310;7.230;2023-07-29T16:36:36;277.17;;;261.10;;